sensor_id;sensor_type;location;lat;lon;timestamp;temperature;humidity
15749;DHT22;7976;52.526;13.326;2023-08-01T00:01:50;18.60;99.90
15749;DHT22;7976;52.526;13.326;2023-08-01T00:04:17;18.60;99.90
15749;DHT22;7976;52.526;13.326;2023-08-01T00:06:44;18.60;99.90
15749;DHT22;7976;52.526;13.326;2023-08-01T00:09:10;18.60;99.90
15749;DHT22;7976;52.526;13.326;2023-08-01T00:11:37;18.60;99.90
15749;DHT22;7976;52.526;13.326;2023-08-01T00:14:04;18.50;99.90
15749;DHT22;7976;52.526;13.326;2023-08-01T00:16:31;18.40;99.90
15749;DHT22;7976;52.526;13.326;2023-08-01T00:18:59;18.40;99.90
15749;DHT22;7976;52.526;13.326;2023-08-01T00:21:26;18.30;99.90
15749;DHT22;7976;52.526;13.326;2023-08-01T00:23:53;18.20;99.90
15749;DHT22;7976;52.526;13.326;2023-08-01T00:26:20;18.20;99.90
15749;DHT22;7976;52.526;13.326;2023-08-01T00:28:47;18.10;99.90
15749;DHT22;7976;52.526;13.326;2023-08-01T00:31:14;18.10;99.90
15749;DHT22;7976;52.526;13.326;2023-08-01T00:33:40;18.00;99.90
15749;DHT22;7976;52.526;13.326;2023-08-01T00:36:09;17.90;99.90
15749;DHT22;7976;52.526;13.326;2023-08-01T00:38:36;17.90;99.90
15749;DHT22;7976;52.526;13.326;2023-08-01T00:41:03;17.80;99.90
15749;DHT22;7976;52.526;13.326;2023-08-01T00:43:30;17.80;99.90
15749;DHT22;7976;52.526;13.326;2023-08-01T00:45:59;17.80;99.90
15749;DHT22;7976;52.526;13.326;2023-08-01T00:48:28;17.70;99.90
15749;DHT22;7976;52.526;13.326;2023-08-01T00:50:56;17.70;99.90
15749;DHT22;7976;52.526;13.326;2023-08-01T00:53:25;17.70;99.90
15749;DHT22;7976;52.526;13.326;2023-08-01T00:55:52;17.70;99.90
15749;DHT22;7976;52.526;13.326;2023-08-01T00:58:20;17.70;99.90
15749;DHT22;7976;52.526;13.326;2023-08-01T01:00:47;17.60;99.90
15749;DHT22;7976;52.526;13.326;2023-08-01T01:03:14;17.60;99.90
15749;DHT22;7976;52.526;13.326;2023-08-01T01:05:49;17.60;99.90
15749;DHT22;7976;52.526;13.326;2023-08-01T01:08:22;17.60;99.90
15749;DHT22;7976;52.526;13.326;2023-08-01T01:10:51;17.60;99.90
15749;DHT22;7976;52.526;13.326;2023-08-01T01:13:18;17.60;99.90
15749;DHT22;7976;52.526;13.326;2023-08-01T01:15:45;17.60;99.90
15749;DHT22;7976;52.526;13.326;2023-08-01T01:18:12;17.60;99.90
15749;DHT22;7976;52.526;13.326;2023-08-01T01:20:41;17.60;99.90
15749;DHT22;7976;52.526;13.326;2023-08-01T01:23:09;17.60;99.90
15749;DHT22;7976;52.526;13.326;2023-08-01T01:25:38;17.60;99.90
15749;DHT22;7976;52.526;13.326;2023-08-01T01:28:07;17.50;99.90
15749;DHT22;7976;52.526;13.326;2023-08-01T01:30:35;17.50;99.90
15749;DHT22;7976;52.526;13.326;2023-08-01T01:33:02;17.50;99.90
15749;DHT22;7976;52.526;13.326;2023-08-01T01:35:31;17.50;99.90
15749;DHT22;7976;52.526;13.326;2023-08-01T01:38:01;17.50;99.90
15749;DHT22;7976;52.526;13.326;2023-08-01T01:40:29;17.50;99.90
15749;DHT22;7976;52.526;13.326;2023-08-01T01:42:56;17.50;99.90
15749;DHT22;7976;52.526;13.326;2023-08-01T01:45:23;17.50;99.90
15749;DHT22;7976;52.526;13.326;2023-08-01T01:47:50;17.50;99.90
15749;DHT22;7976;52.526;13.326;2023-08-01T01:50:17;17.50;99.90
15749;DHT22;7976;52.526;13.326;2023-08-01T01:52:44;17.40;99.90
15749;DHT22;7976;52.526;13.326;2023-08-01T01:55:13;17.50;99.90
15749;DHT22;7976;52.526;13.326;2023-08-01T01:57:40;17.40;99.90
15749;DHT22;7976;52.526;13.326;2023-08-01T02:00:07;17.50;99.90
15749;DHT22;7976;52.526;13.326;2023-08-01T02:02:38;17.50;99.90
15749;DHT22;7976;52.526;13.326;2023-08-01T02:05:06;17.50;99.90
15749;DHT22;7976;52.526;13.326;2023-08-01T02:07:33;17.50;99.90
15749;DHT22;7976;52.526;13.326;2023-08-01T02:10:00;17.50;99.90
15749;DHT22;7976;52.526;13.326;2023-08-01T02:12:31;17.50;99.90
15749;DHT22;7976;52.526;13.326;2023-08-01T02:15:00;17.50;99.90
15749;DHT22;7976;52.526;13.326;2023-08-01T02:17:27;17.50;99.90
15749;DHT22;7976;52.526;13.326;2023-08-01T02:19:53;17.60;99.90
15749;DHT22;7976;52.526;13.326;2023-08-01T02:22:20;17.60;99.90
15749;DHT22;7976;52.526;13.326;2023-08-01T02:24:47;17.60;99.90
15749;DHT22;7976;52.526;13.326;2023-08-01T02:27:14;17.60;99.90
15749;DHT22;7976;52.526;13.326;2023-08-01T02:29:43;17.60;99.90
15749;DHT22;7976;52.526;13.326;2023-08-01T02:32:10;17.60;99.90
15749;DHT22;7976;52.526;13.326;2023-08-01T02:34:37;17.60;99.90
15749;DHT22;7976;52.526;13.326;2023-08-01T02:37:04;17.60;99.90
15749;DHT22;7976;52.526;13.326;2023-08-01T02:39:31;17.60;99.90
15749;DHT22;7976;52.526;13.326;2023-08-01T02:41:58;17.60;99.90
15749;DHT22;7976;52.526;13.326;2023-08-01T02:44:25;17.60;99.90
15749;DHT22;7976;52.526;13.326;2023-08-01T02:46:53;17.60;99.90
15749;DHT22;7976;52.526;13.326;2023-08-01T02:49:20;17.70;99.90
15749;DHT22;7976;52.526;13.326;2023-08-01T02:51:47;17.60;99.90
15749;DHT22;7976;52.526;13.326;2023-08-01T02:54:14;17.70;99.90
15749;DHT22;7976;52.526;13.326;2023-08-01T02:56:41;17.70;99.90
15749;DHT22;7976;52.526;13.326;2023-08-01T02:59:08;17.70;99.90
15749;DHT22;7976;52.526;13.326;2023-08-01T03:01:35;17.70;99.90
15749;DHT22;7976;52.526;13.326;2023-08-01T03:04:04;17.70;99.90
15749;DHT22;7976;52.526;13.326;2023-08-01T03:06:32;17.70;99.90
15749;DHT22;7976;52.526;13.326;2023-08-01T03:09:00;17.70;99.90
15749;DHT22;7976;52.526;13.326;2023-08-01T03:11:27;17.70;99.90
15749;DHT22;7976;52.526;13.326;2023-08-01T03:13:54;17.70;99.90
15749;DHT22;7976;52.526;13.326;2023-08-01T03:16:21;17.70;99.90
15749;DHT22;7976;52.526;13.326;2023-08-01T03:18:49;17.70;99.90
15749;DHT22;7976;52.526;13.326;2023-08-01T03:21:17;17.60;99.90
15749;DHT22;7976;52.526;13.326;2023-08-01T03:23:44;17.70;99.90
15749;DHT22;7976;52.526;13.326;2023-08-01T03:26:11;17.70;99.90
15749;DHT22;7976;52.526;13.326;2023-08-01T03:28:38;17.70;99.90
15749;DHT22;7976;52.526;13.326;2023-08-01T03:31:05;17.70;99.90
15749;DHT22;7976;52.526;13.326;2023-08-01T03:33:32;17.70;99.90
15749;DHT22;7976;52.526;13.326;2023-08-01T03:36:01;17.70;99.90
15749;DHT22;7976;52.526;13.326;2023-08-01T03:38:30;17.70;99.90
15749;DHT22;7976;52.526;13.326;2023-08-01T03:40:57;17.70;99.90
15749;DHT22;7976;52.526;13.326;2023-08-01T03:43:24;17.60;99.90
15749;DHT22;7976;52.526;13.326;2023-08-01T03:45:51;17.70;99.90
15749;DHT22;7976;52.526;13.326;2023-08-01T03:48:18;17.70;99.90
15749;DHT22;7976;52.526;13.326;2023-08-01T03:50:45;17.70;99.90
15749;DHT22;7976;52.526;13.326;2023-08-01T03:53:12;17.70;99.90
15749;DHT22;7976;52.526;13.326;2023-08-01T03:55:40;17.70;99.90
15749;DHT22;7976;52.526;13.326;2023-08-01T03:58:07;17.70;99.90
15749;DHT22;7976;52.526;13.326;2023-08-01T04:00:34;17.70;99.90
15749;DHT22;7976;52.526;13.326;2023-08-01T04:03:01;17.70;99.90
15749;DHT22;7976;52.526;13.326;2023-08-01T04:05:28;17.70;99.90
15749;DHT22;7976;52.526;13.326;2023-08-01T04:07:55;17.70;99.90
15749;DHT22;7976;52.526;13.326;2023-08-01T04:10:22;17.70;99.90
15749;DHT22;7976;52.526;13.326;2023-08-01T04:12:51;17.70;99.90
15749;DHT22;7976;52.526;13.326;2023-08-01T04:15:18;17.70;99.90
15749;DHT22;7976;52.526;13.326;2023-08-01T04:17:45;17.80;99.90
15749;DHT22;7976;52.526;13.326;2023-08-01T04:20:12;17.70;99.90
15749;DHT22;7976;52.526;13.326;2023-08-01T04:22:38;17.80;99.90
15749;DHT22;7976;52.526;13.326;2023-08-01T04:25:06;17.80;99.90
15749;DHT22;7976;52.526;13.326;2023-08-01T04:27:33;17.80;99.90
15749;DHT22;7976;52.526;13.326;2023-08-01T04:30:02;17.80;99.90
15749;DHT22;7976;52.526;13.326;2023-08-01T04:32:29;17.90;99.90
15749;DHT22;7976;52.526;13.326;2023-08-01T04:34:56;17.80;99.90
15749;DHT22;7976;52.526;13.326;2023-08-01T04:37:23;17.80;99.90
15749;DHT22;7976;52.526;13.326;2023-08-01T04:39:51;17.90;99.90
15749;DHT22;7976;52.526;13.326;2023-08-01T04:42:18;17.90;99.90
15749;DHT22;7976;52.526;13.326;2023-08-01T04:44:45;17.90;99.90
15749;DHT22;7976;52.526;13.326;2023-08-01T04:47:13;17.90;99.90
15749;DHT22;7976;52.526;13.326;2023-08-01T04:49:41;17.90;99.90
15749;DHT22;7976;52.526;13.326;2023-08-01T04:52:07;17.90;99.90
15749;DHT22;7976;52.526;13.326;2023-08-01T04:54:34;17.90;99.90
15749;DHT22;7976;52.526;13.326;2023-08-01T04:57:01;17.90;99.90
15749;DHT22;7976;52.526;13.326;2023-08-01T04:59:28;17.90;99.90
15749;DHT22;7976;52.526;13.326;2023-08-01T05:01:55;17.90;99.90
15749;DHT22;7976;52.526;13.326;2023-08-01T05:04:23;17.90;99.90
15749;DHT22;7976;52.526;13.326;2023-08-01T05:06:50;17.90;99.90
15749;DHT22;7976;52.526;13.326;2023-08-01T05:09:17;17.90;99.90
15749;DHT22;7976;52.526;13.326;2023-08-01T05:11:44;18.00;99.90
15749;DHT22;7976;52.526;13.326;2023-08-01T05:14:11;18.00;99.90
15749;DHT22;7976;52.526;13.326;2023-08-01T05:16:37;18.00;99.90
15749;DHT22;7976;52.526;13.326;2023-08-01T05:19:04;18.00;99.90
15749;DHT22;7976;52.526;13.326;2023-08-01T05:21:32;18.00;99.90
15749;DHT22;7976;52.526;13.326;2023-08-01T05:23:59;18.00;99.90
15749;DHT22;7976;52.526;13.326;2023-08-01T05:26:26;18.00;99.90
15749;DHT22;7976;52.526;13.326;2023-08-01T05:28:53;18.10;99.90
15749;DHT22;7976;52.526;13.326;2023-08-01T05:31:19;18.10;99.90
15749;DHT22;7976;52.526;13.326;2023-08-01T05:33:46;18.20;99.90
15749;DHT22;7976;52.526;13.326;2023-08-01T05:36:13;18.10;99.90
15749;DHT22;7976;52.526;13.326;2023-08-01T05:38:41;18.20;99.90
15749;DHT22;7976;52.526;13.326;2023-08-01T05:41:08;18.10;99.90
15749;DHT22;7976;52.526;13.326;2023-08-01T05:43:35;18.10;99.90
15749;DHT22;7976;52.526;13.326;2023-08-01T05:46:01;18.10;99.90
15749;DHT22;7976;52.526;13.326;2023-08-01T05:48:28;18.10;99.90
15749;DHT22;7976;52.526;13.326;2023-08-01T05:50:55;18.10;99.90
15749;DHT22;7976;52.526;13.326;2023-08-01T05:53:23;18.10;99.90
15749;DHT22;7976;52.526;13.326;2023-08-01T05:55:51;18.10;99.90
15749;DHT22;7976;52.526;13.326;2023-08-01T05:58:18;18.10;99.90
15749;DHT22;7976;52.526;13.326;2023-08-01T06:00:45;18.10;99.90
15749;DHT22;7976;52.526;13.326;2023-08-01T06:03:12;18.20;99.90
15749;DHT22;7976;52.526;13.326;2023-08-01T06:05:39;18.20;99.90
15749;DHT22;7976;52.526;13.326;2023-08-01T06:08:07;18.20;99.90
15749;DHT22;7976;52.526;13.326;2023-08-01T06:10:34;18.20;99.90
15749;DHT22;7976;52.526;13.326;2023-08-01T06:13:03;18.20;99.90
15749;DHT22;7976;52.526;13.326;2023-08-01T06:15:30;18.20;99.90
15749;DHT22;7976;52.526;13.326;2023-08-01T06:17:57;18.30;99.90
15749;DHT22;7976;52.526;13.326;2023-08-01T06:20:24;18.30;99.90
15749;DHT22;7976;52.526;13.326;2023-08-01T06:22:51;18.30;99.90
15749;DHT22;7976;52.526;13.326;2023-08-01T06:25:18;18.30;99.90
15749;DHT22;7976;52.526;13.326;2023-08-01T06:27:44;18.30;99.90
15749;DHT22;7976;52.526;13.326;2023-08-01T06:30:13;18.30;99.90
15749;DHT22;7976;52.526;13.326;2023-08-01T06:32:39;18.30;99.90
15749;DHT22;7976;52.526;13.326;2023-08-01T06:35:07;18.40;99.90
15749;DHT22;7976;52.526;13.326;2023-08-01T06:37:34;18.40;99.90
15749;DHT22;7976;52.526;13.326;2023-08-01T06:40:01;18.40;99.90
15749;DHT22;7976;52.526;13.326;2023-08-01T06:42:29;18.40;99.90
15749;DHT22;7976;52.526;13.326;2023-08-01T06:44:56;18.40;99.90
15749;DHT22;7976;52.526;13.326;2023-08-01T06:47:24;18.40;99.90
15749;DHT22;7976;52.526;13.326;2023-08-01T06:49:51;18.40;99.90
15749;DHT22;7976;52.526;13.326;2023-08-01T06:52:19;18.40;99.90
15749;DHT22;7976;52.526;13.326;2023-08-01T06:54:46;18.40;99.90
15749;DHT22;7976;52.526;13.326;2023-08-01T06:57:12;18.40;99.90
15749;DHT22;7976;52.526;13.326;2023-08-01T06:59:39;18.40;99.90
15749;DHT22;7976;52.526;13.326;2023-08-01T07:02:06;18.50;99.90
15749;DHT22;7976;52.526;13.326;2023-08-01T07:04:35;18.50;99.90
15749;DHT22;7976;52.526;13.326;2023-08-01T07:07:03;18.50;99.90
15749;DHT22;7976;52.526;13.326;2023-08-01T07:09:30;18.50;99.90
15749;DHT22;7976;52.526;13.326;2023-08-01T07:11:57;18.50;99.90
15749;DHT22;7976;52.526;13.326;2023-08-01T07:14:23;18.60;99.90
15749;DHT22;7976;52.526;13.326;2023-08-01T07:16:50;18.60;99.90
15749;DHT22;7976;52.526;13.326;2023-08-01T07:19:17;18.70;99.90
15749;DHT22;7976;52.526;13.326;2023-08-01T07:21:45;18.70;99.90
15749;DHT22;7976;52.526;13.326;2023-08-01T07:24:14;18.80;99.90
15749;DHT22;7976;52.526;13.326;2023-08-01T07:26:41;18.90;99.90
15749;DHT22;7976;52.526;13.326;2023-08-01T07:29:08;18.90;99.90
15749;DHT22;7976;52.526;13.326;2023-08-01T07:31:36;19.00;99.90
15749;DHT22;7976;52.526;13.326;2023-08-01T07:34:03;19.00;99.90
15749;DHT22;7976;52.526;13.326;2023-08-01T07:36:30;19.10;99.90
15749;DHT22;7976;52.526;13.326;2023-08-01T07:39:02;19.10;99.90
15749;DHT22;7976;52.526;13.326;2023-08-01T07:41:30;19.20;99.90
15749;DHT22;7976;52.526;13.326;2023-08-01T07:43:58;19.30;99.90
15749;DHT22;7976;52.526;13.326;2023-08-01T07:46:28;19.40;99.90
15749;DHT22;7976;52.526;13.326;2023-08-01T07:48:55;19.50;99.90
15749;DHT22;7976;52.526;13.326;2023-08-01T07:51:21;19.50;99.90
15749;DHT22;7976;52.526;13.326;2023-08-01T07:53:51;19.60;99.90
15749;DHT22;7976;52.526;13.326;2023-08-01T07:56:19;19.60;99.90
15749;DHT22;7976;52.526;13.326;2023-08-01T07:58:47;19.60;99.90
15749;DHT22;7976;52.526;13.326;2023-08-01T08:01:13;19.60;99.90
15749;DHT22;7976;52.526;13.326;2023-08-01T08:03:40;19.60;99.90
15749;DHT22;7976;52.526;13.326;2023-08-01T08:06:07;19.70;99.90
15749;DHT22;7976;52.526;13.326;2023-08-01T08:08:34;19.70;99.90
15749;DHT22;7976;52.526;13.326;2023-08-01T08:11:02;19.80;99.90
15749;DHT22;7976;52.526;13.326;2023-08-01T08:13:31;19.90;99.90
15749;DHT22;7976;52.526;13.326;2023-08-01T08:15:58;20.10;99.90
15749;DHT22;7976;52.526;13.326;2023-08-01T08:18:27;20.20;99.90
15749;DHT22;7976;52.526;13.326;2023-08-01T08:20:54;20.30;99.90
15749;DHT22;7976;52.526;13.326;2023-08-01T08:23:20;20.30;99.90
15749;DHT22;7976;52.526;13.326;2023-08-01T08:25:47;20.20;99.90
15749;DHT22;7976;52.526;13.326;2023-08-01T08:28:27;20.20;99.90
15749;DHT22;7976;52.526;13.326;2023-08-01T08:30:56;20.10;99.90
15749;DHT22;7976;52.526;13.326;2023-08-01T08:33:25;20.10;99.90
15749;DHT22;7976;52.526;13.326;2023-08-01T08:35:55;20.10;99.90
15749;DHT22;7976;52.526;13.326;2023-08-01T08:38:22;20.10;99.90
15749;DHT22;7976;52.526;13.326;2023-08-01T08:40:59;20.20;99.90
15749;DHT22;7976;52.526;13.326;2023-08-01T08:43:33;20.30;99.90
15749;DHT22;7976;52.526;13.326;2023-08-01T08:46:03;20.30;99.90
15749;DHT22;7976;52.526;13.326;2023-08-01T08:48:34;20.40;99.90
15749;DHT22;7976;52.526;13.326;2023-08-01T08:51:02;20.40;99.90
15749;DHT22;7976;52.526;13.326;2023-08-01T08:53:30;20.40;99.90
15749;DHT22;7976;52.526;13.326;2023-08-01T08:55:59;20.50;99.90
15749;DHT22;7976;52.526;13.326;2023-08-01T08:58:28;20.50;99.90
15749;DHT22;7976;52.526;13.326;2023-08-01T09:00:56;20.40;99.90
15749;DHT22;7976;52.526;13.326;2023-08-01T09:03:26;20.40;99.90
15749;DHT22;7976;52.526;13.326;2023-08-01T09:05:59;20.40;99.90
15749;DHT22;7976;52.526;13.326;2023-08-01T09:08:31;20.40;99.90
15749;DHT22;7976;52.526;13.326;2023-08-01T09:11:01;20.40;99.90
15749;DHT22;7976;52.526;13.326;2023-08-01T09:13:29;20.40;99.90
15749;DHT22;7976;52.526;13.326;2023-08-01T09:15:56;20.60;99.90
15749;DHT22;7976;52.526;13.326;2023-08-01T09:18:23;20.70;99.90
15749;DHT22;7976;52.526;13.326;2023-08-01T09:20:52;20.80;99.90
15749;DHT22;7976;52.526;13.326;2023-08-01T09:23:18;21.00;99.90
15749;DHT22;7976;52.526;13.326;2023-08-01T09:25:45;21.00;99.90
15749;DHT22;7976;52.526;13.326;2023-08-01T09:28:16;21.00;99.90
15749;DHT22;7976;52.526;13.326;2023-08-01T09:30:48;21.00;99.90
15749;DHT22;7976;52.526;13.326;2023-08-01T09:33:17;20.90;99.90
15749;DHT22;7976;52.526;13.326;2023-08-01T09:35:44;20.90;99.90
15749;DHT22;7976;52.526;13.326;2023-08-01T09:38:14;20.80;99.90
15749;DHT22;7976;52.526;13.326;2023-08-01T09:40:42;20.70;99.90
15749;DHT22;7976;52.526;13.326;2023-08-01T09:43:11;20.50;99.90
15749;DHT22;7976;52.526;13.326;2023-08-01T09:45:49;20.20;99.90
15749;DHT22;7976;52.526;13.326;2023-08-01T09:48:24;20.00;99.90
15749;DHT22;7976;52.526;13.326;2023-08-01T09:50:52;19.80;99.90
15749;DHT22;7976;52.526;13.326;2023-08-01T09:53:32;19.70;99.90
15749;DHT22;7976;52.526;13.326;2023-08-01T09:56:01;19.70;99.90
15749;DHT22;7976;52.526;13.326;2023-08-01T09:58:32;19.70;99.90
15749;DHT22;7976;52.526;13.326;2023-08-01T10:01:01;19.70;99.90
15749;DHT22;7976;52.526;13.326;2023-08-01T10:03:28;19.80;99.90
15749;DHT22;7976;52.526;13.326;2023-08-01T10:05:56;19.80;99.90
15749;DHT22;7976;52.526;13.326;2023-08-01T10:08:33;19.80;99.90
15749;DHT22;7976;52.526;13.326;2023-08-01T10:11:05;19.80;99.90
15749;DHT22;7976;52.526;13.326;2023-08-01T10:13:33;19.70;99.90
15749;DHT22;7976;52.526;13.326;2023-08-01T10:16:05;19.60;99.90
15749;DHT22;7976;52.526;13.326;2023-08-01T10:18:37;19.60;99.90
15749;DHT22;7976;52.526;13.326;2023-08-01T10:21:05;19.60;99.90
15749;DHT22;7976;52.526;13.326;2023-08-01T10:23:35;19.60;99.90
15749;DHT22;7976;52.526;13.326;2023-08-01T10:26:06;19.60;99.90
15749;DHT22;7976;52.526;13.326;2023-08-01T10:28:36;19.60;99.90
15749;DHT22;7976;52.526;13.326;2023-08-01T10:31:09;19.60;99.90
15749;DHT22;7976;52.526;13.326;2023-08-01T10:33:37;19.60;99.90
15749;DHT22;7976;52.526;13.326;2023-08-01T10:36:12;19.50;99.90
15749;DHT22;7976;52.526;13.326;2023-08-01T10:38:52;19.50;99.90
15749;DHT22;7976;52.526;13.326;2023-08-01T10:41:25;19.30;99.90
15749;DHT22;7976;52.526;13.326;2023-08-01T10:44:04;19.10;99.90
15749;DHT22;7976;52.526;13.326;2023-08-01T10:46:48;18.90;99.90
15749;DHT22;7976;52.526;13.326;2023-08-01T10:49:17;18.70;99.90
15749;DHT22;7976;52.526;13.326;2023-08-01T10:51:45;18.50;99.90
15749;DHT22;7976;52.526;13.326;2023-08-01T10:54:20;18.40;99.90
15749;DHT22;7976;52.526;13.326;2023-08-01T10:56:49;18.30;99.90
15749;DHT22;7976;52.526;13.326;2023-08-01T10:59:18;18.20;99.90
15749;DHT22;7976;52.526;13.326;2023-08-01T11:01:48;18.20;99.90
15749;DHT22;7976;52.526;13.326;2023-08-01T11:04:17;18.10;99.90
15749;DHT22;7976;52.526;13.326;2023-08-01T11:06:49;18.10;99.90
15749;DHT22;7976;52.526;13.326;2023-08-01T11:09:20;18.00;99.90
15749;DHT22;7976;52.526;13.326;2023-08-01T11:11:50;18.00;99.90
15749;DHT22;7976;52.526;13.326;2023-08-01T11:14:20;18.00;99.90
15749;DHT22;7976;52.526;13.326;2023-08-01T11:16:48;18.00;99.90
15749;DHT22;7976;52.526;13.326;2023-08-01T11:19:20;18.10;99.90
15749;DHT22;7976;52.526;13.326;2023-08-01T11:21:48;18.00;99.90
15749;DHT22;7976;52.526;13.326;2023-08-01T11:24:16;18.00;99.90
15749;DHT22;7976;52.526;13.326;2023-08-01T11:26:46;18.10;99.90
15749;DHT22;7976;52.526;13.326;2023-08-01T11:29:14;18.20;99.90
15749;DHT22;7976;52.526;13.326;2023-08-01T11:31:52;18.30;99.90
15749;DHT22;7976;52.526;13.326;2023-08-01T11:34:20;18.40;99.90
15749;DHT22;7976;52.526;13.326;2023-08-01T11:36:47;18.50;99.90
15749;DHT22;7976;52.526;13.326;2023-08-01T11:39:17;18.60;99.90
15749;DHT22;7976;52.526;13.326;2023-08-01T11:41:45;18.70;99.90
15749;DHT22;7976;52.526;13.326;2023-08-01T11:44:12;18.80;99.90
15749;DHT22;7976;52.526;13.326;2023-08-01T11:46:39;18.80;99.90
15749;DHT22;7976;52.526;13.326;2023-08-01T11:49:08;18.90;99.90
15749;DHT22;7976;52.526;13.326;2023-08-01T11:51:42;19.00;99.90
15749;DHT22;7976;52.526;13.326;2023-08-01T11:54:10;19.10;99.90
15749;DHT22;7976;52.526;13.326;2023-08-01T11:56:39;19.10;99.90
15749;DHT22;7976;52.526;13.326;2023-08-01T11:59:12;19.10;99.90
15749;DHT22;7976;52.526;13.326;2023-08-01T12:01:41;19.10;99.90
15749;DHT22;7976;52.526;13.326;2023-08-01T12:04:10;19.10;99.90
15749;DHT22;7976;52.526;13.326;2023-08-01T12:06:37;19.10;99.90
15749;DHT22;7976;52.526;13.326;2023-08-01T12:09:08;19.20;99.90
15749;DHT22;7976;52.526;13.326;2023-08-01T12:11:36;19.30;99.90
15749;DHT22;7976;52.526;13.326;2023-08-01T12:14:05;19.40;99.90
15749;DHT22;7976;52.526;13.326;2023-08-01T12:16:37;19.60;99.90
15749;DHT22;7976;52.526;13.326;2023-08-01T12:19:05;19.60;99.90
15749;DHT22;7976;52.526;13.326;2023-08-01T12:21:33;19.60;99.90
15749;DHT22;7976;52.526;13.326;2023-08-01T12:24:00;19.60;99.90
15749;DHT22;7976;52.526;13.326;2023-08-01T12:26:27;19.60;99.90
15749;DHT22;7976;52.526;13.326;2023-08-01T12:28:55;19.60;99.90
15749;DHT22;7976;52.526;13.326;2023-08-01T12:31:22;19.50;99.90
15749;DHT22;7976;52.526;13.326;2023-08-01T12:33:50;19.50;99.90
15749;DHT22;7976;52.526;13.326;2023-08-01T12:36:19;19.50;99.90
15749;DHT22;7976;52.526;13.326;2023-08-01T12:38:46;19.50;99.90
15749;DHT22;7976;52.526;13.326;2023-08-01T12:41:14;19.60;99.90
15749;DHT22;7976;52.526;13.326;2023-08-01T12:43:46;19.60;99.90
15749;DHT22;7976;52.526;13.326;2023-08-01T12:46:13;19.60;99.90
15749;DHT22;7976;52.526;13.326;2023-08-01T12:48:40;19.60;99.90
15749;DHT22;7976;52.526;13.326;2023-08-01T12:51:09;19.70;99.90
15749;DHT22;7976;52.526;13.326;2023-08-01T12:53:36;19.80;99.90
15749;DHT22;7976;52.526;13.326;2023-08-01T12:56:07;19.80;99.90
15749;DHT22;7976;52.526;13.326;2023-08-01T12:58:34;19.90;99.90
15749;DHT22;7976;52.526;13.326;2023-08-01T13:01:02;20.00;99.90
15749;DHT22;7976;52.526;13.326;2023-08-01T13:03:30;20.00;99.90
15749;DHT22;7976;52.526;13.326;2023-08-01T13:05:57;20.10;99.90
15749;DHT22;7976;52.526;13.326;2023-08-01T13:08:25;20.20;99.90
15749;DHT22;7976;52.526;13.326;2023-08-01T13:10:54;20.30;99.90
15749;DHT22;7976;52.526;13.326;2023-08-01T13:13:21;20.30;99.90
15749;DHT22;7976;52.526;13.326;2023-08-01T13:15:48;20.40;99.90
15749;DHT22;7976;52.526;13.326;2023-08-01T13:18:15;20.50;99.90
15749;DHT22;7976;52.526;13.326;2023-08-01T13:20:43;20.70;99.90
15749;DHT22;7976;52.526;13.326;2023-08-01T13:23:10;20.80;99.90
15749;DHT22;7976;52.526;13.326;2023-08-01T13:25:38;20.90;99.90
15749;DHT22;7976;52.526;13.326;2023-08-01T13:28:05;20.90;99.90
15749;DHT22;7976;52.526;13.326;2023-08-01T13:30:32;20.90;99.90
15749;DHT22;7976;52.526;13.326;2023-08-01T13:33:00;21.00;99.90
15749;DHT22;7976;52.526;13.326;2023-08-01T13:35:26;21.00;99.90
15749;DHT22;7976;52.526;13.326;2023-08-01T13:37:53;21.10;99.90
15749;DHT22;7976;52.526;13.326;2023-08-01T13:40:24;21.10;99.90
15749;DHT22;7976;52.526;13.326;2023-08-01T13:42:53;21.10;99.90
15749;DHT22;7976;52.526;13.326;2023-08-01T13:45:20;21.20;99.90
15749;DHT22;7976;52.526;13.326;2023-08-01T13:47:47;21.30;99.90
15749;DHT22;7976;52.526;13.326;2023-08-01T13:50:14;21.50;99.90
15749;DHT22;7976;52.526;13.326;2023-08-01T13:52:44;21.50;99.90
15749;DHT22;7976;52.526;13.326;2023-08-01T13:55:12;21.40;99.90
15749;DHT22;7976;52.526;13.326;2023-08-01T13:57:42;21.40;99.90
15749;DHT22;7976;52.526;13.326;2023-08-01T14:00:12;21.20;99.90
15749;DHT22;7976;52.526;13.326;2023-08-01T14:05:15;21.30;99.90
15749;DHT22;7976;52.526;13.326;2023-08-01T14:07:42;21.40;99.90
15749;DHT22;7976;52.526;13.326;2023-08-01T14:10:09;21.50;99.90
15749;DHT22;7976;52.526;13.326;2023-08-01T14:12:36;21.50;99.90
15749;DHT22;7976;52.526;13.326;2023-08-01T14:15:04;21.60;99.90
15749;DHT22;7976;52.526;13.326;2023-08-01T14:17:33;21.50;99.90
15749;DHT22;7976;52.526;13.326;2023-08-01T14:20:00;21.50;99.90
15749;DHT22;7976;52.526;13.326;2023-08-01T14:22:29;21.60;99.90
15749;DHT22;7976;52.526;13.326;2023-08-01T14:24:56;21.70;99.90
15749;DHT22;7976;52.526;13.326;2023-08-01T14:27:23;21.70;99.90
15749;DHT22;7976;52.526;13.326;2023-08-01T14:29:50;21.70;99.90
15749;DHT22;7976;52.526;13.326;2023-08-01T14:32:18;21.80;99.90
15749;DHT22;7976;52.526;13.326;2023-08-01T14:34:47;21.80;99.90
15749;DHT22;7976;52.526;13.326;2023-08-01T14:37:14;21.80;99.90
15749;DHT22;7976;52.526;13.326;2023-08-01T14:39:41;21.80;99.90
15749;DHT22;7976;52.526;13.326;2023-08-01T14:42:08;21.80;99.90
15749;DHT22;7976;52.526;13.326;2023-08-01T14:44:34;21.80;99.90
15749;DHT22;7976;52.526;13.326;2023-08-01T14:47:01;21.70;99.90
15749;DHT22;7976;52.526;13.326;2023-08-01T14:49:28;21.80;99.90
15749;DHT22;7976;52.526;13.326;2023-08-01T14:51:56;21.70;99.90
15749;DHT22;7976;52.526;13.326;2023-08-01T14:54:23;21.70;99.90
15749;DHT22;7976;52.526;13.326;2023-08-01T14:56:51;21.70;99.90
15749;DHT22;7976;52.526;13.326;2023-08-01T14:59:18;21.70;99.90
15749;DHT22;7976;52.526;13.326;2023-08-01T15:01:45;21.60;99.90
15749;DHT22;7976;52.526;13.326;2023-08-01T15:04:12;21.50;99.90
15749;DHT22;7976;52.526;13.326;2023-08-01T15:06:39;21.40;99.90
15749;DHT22;7976;52.526;13.326;2023-08-01T15:09:07;21.40;99.90
15749;DHT22;7976;52.526;13.326;2023-08-01T15:11:35;21.10;99.90
15749;DHT22;7976;52.526;13.326;2023-08-01T15:14:02;20.80;99.90
15749;DHT22;7976;52.526;13.326;2023-08-01T15:16:29;20.30;99.90
15749;DHT22;7976;52.526;13.326;2023-08-01T15:18:56;19.90;99.90
15749;DHT22;7976;52.526;13.326;2023-08-01T15:21:23;19.50;99.90
15749;DHT22;7976;52.526;13.326;2023-08-01T15:23:52;19.10;99.90
15749;DHT22;7976;52.526;13.326;2023-08-01T15:26:20;18.80;99.90
15749;DHT22;7976;52.526;13.326;2023-08-01T15:28:47;18.70;99.90
15749;DHT22;7976;52.526;13.326;2023-08-01T15:31:14;18.60;99.90
15749;DHT22;7976;52.526;13.326;2023-08-01T15:33:41;18.60;99.90
15749;DHT22;7976;52.526;13.326;2023-08-01T15:36:08;18.60;99.90
15749;DHT22;7976;52.526;13.326;2023-08-01T15:38:37;18.60;99.90